Time;durP1;ratioP1;P1;durP2;ratioP2;P2;SDS_P1;SDS_P2;PMS_P1;PMS_P2;Temp;Humidity;BMP_temperature;BMP_pressure;BME280_temperature;BME280_humidity;BME280_pressure;Samples;Min_cycle;Max_cycle;Signal;HPM_P1;HPM_P2
2022/09/25 00:00:46;;;;;;;12.63;5.30;;;;;;;;;;5054736;28;20685;-70
2022/09/25 00:03:13;;;;;;;9.20;4.57;;;;;;;;;;5054369;28;20295;-71
2022/09/25 00:05:39;;;;;;;12.23;5.63;;;;;;;;;;5036300;28;20210;-71
2022/09/25 00:08:06;;;;;;;8.77;4.60;;;;;;;;;;5054316;28;20170;-70
2022/09/25 00:10:33;;;;;;;16.13;5.00;;;;;;;;;;5054197;28;20277;-70
2022/09/25 00:12:58;;;;;;;11.87;5.07;;;;;;;;;;5054098;28;20194;-68
2022/09/25 00:15:25;;;;;;;12.47;4.63;;;;;;;;;;5054267;28;20179;-69
2022/09/25 00:17:51;;;;;;;14.33;5.67;;;;;;;;;;5037556;28;20599;-68
2022/09/25 00:20:18;;;;;;;12.50;5.37;;;;;;;;;;5054461;28;20174;-67
2022/09/25 00:22:44;;;;;;;13.63;5.70;;;;;;;;;;5054191;28;20566;-70
2022/09/25 00:25:14;;;;;;;15.70;5.57;;;;;;;;;;5036246;28;20186;-70
2022/09/25 00:27:40;;;;;;;14.30;5.67;;;;;;;;;;5054426;28;20174;-70
2022/09/25 00:30:07;;;;;;;17.63;5.33;;;;;;;;;;5036866;28;20265;-70
2022/09/25 00:32:33;;;;;;;9.73;5.00;;;;;;;;;;5053802;28;20214;-70
2022/09/25 00:34:59;;;;;;;13.13;5.00;;;;;;;;;;5054393;28;20174;-71
2022/09/25 00:37:27;;;;;;;12.27;4.27;;;;;;;;;;5035966;28;20557;-70
2022/09/25 00:39:53;;;;;;;14.57;5.67;;;;;;;;;;5035966;28;20221;-70
2022/09/25 00:42:19;;;;;;;13.77;4.57;;;;;;;;;;5053871;28;20646;-70
2022/09/25 00:44:45;;;;;;;9.47;4.63;;;;;;;;;;5054206;28;20186;-70
2022/09/25 00:47:12;;;;;;;11.73;4.60;;;;;;;;;;5053519;28;20202;-70
2022/09/25 00:49:38;;;;;;;12.07;4.30;;;;;;;;;;5053660;28;20543;-71
2022/09/25 00:52:06;;;;;;;10.57;3.87;;;;;;;;;;5053537;28;20200;-70
2022/09/25 00:54:34;;;;;;;15.17;4.87;;;;;;;;;;5053631;28;20200;-70
2022/09/25 00:57:01;;;;;;;15.13;3.93;;;;;;;;;;5053462;28;20187;-69
2022/09/25 00:59:29;;;;;;;9.80;4.07;;;;;;;;;;5054201;28;20174;-70
2022/09/25 01:01:56;;;;;;;12.60;4.03;;;;;;;;;;5053342;28;20226;-70
2022/09/25 01:04:22;;;;;;;8.77;3.80;;;;;;;;;;5053557;28;20182;-71
2022/09/25 01:06:48;;;;;;;12.63;4.23;;;;;;;;;;5053333;28;20206;-71
2022/09/25 01:09:14;;;;;;;12.10;3.70;;;;;;;;;;5053629;28;20525;-70
2022/09/25 01:11:40;;;;;;;9.43;3.60;;;;;;;;;;5035424;28;20622;-70
2022/09/25 01:14:08;;;;;;;12.30;3.77;;;;;;;;;;5053302;28;20171;-71
2022/09/25 01:16:52;;;;;;;9.90;3.63;;;;;;;;;;5053284;28;20185;-70
2022/09/25 01:19:34;;;;;;;14.80;3.83;;;;;;;;;;5053557;28;20622;-70
2022/09/25 01:22:15;;;;;;;11.57;3.37;;;;;;;;;;5036127;28;20578;-70
2022/09/25 01:24:52;;;;;;;10.73;3.43;;;;;;;;;;5057640;28;20182;-70
2022/09/25 01:27:18;;;;;;;8.83;3.43;;;;;;;;;;5035450;28;20197;-70
2022/09/25 01:29:44;;;;;;;11.33;3.47;;;;;;;;;;5053216;28;20170;-71
2022/09/25 01:32:16;;;;;;;9.47;3.20;;;;;;;;;;5052939;28;20216;-71
2022/09/25 01:34:45;;;;;;;15.23;4.90;;;;;;;;;;5053205;28;20167;-70
2022/09/25 01:37:16;;;;;;;9.57;3.80;;;;;;;;;;5053240;28;20185;-70
2022/09/25 01:39:45;;;;;;;12.10;3.80;;;;;;;;;;5053667;28;20198;-70
2022/09/25 01:42:16;;;;;;;11.20;3.63;;;;;;;;;;5035228;28;20198;-70
2022/09/25 01:44:45;;;;;;;9.87;4.10;;;;;;;;;;5053341;28;20623;-70
2022/09/25 01:47:17;;;;;;;9.77;4.07;;;;;;;;;;5053350;28;20202;-70
2022/09/25 01:49:45;;;;;;;8.93;3.90;;;;;;;;;;5035130;28;20171;-70
2022/09/25 01:52:16;;;;;;;11.30;4.20;;;;;;;;;;5053254;28;20654;-70
2022/09/25 01:54:50;;;;;;;11.90;4.73;;;;;;;;;;5035142;28;20560;-70
2022/09/25 01:57:16;;;;;;;15.23;4.03;;;;;;;;;;5053028;28;20159;-71
2022/09/25 01:59:48;;;;;;;13.07;3.80;;;;;;;;;;5053218;28;20193;-70
2022/09/25 02:02:18;;;;;;;11.77;3.90;;;;;;;;;;5053202;28;20620;-71
2022/09/25 02:05:07;;;;;;;12.10;4.33;;;;;;;;;;5053422;28;20619;-70
2022/09/25 02:07:35;;;;;;;14.63;4.80;;;;;;;;;;5037475;28;20277;-70
2022/09/25 02:10:22;;;;;;;10.03;4.23;;;;;;;;;;5034922;28;20175;-70
2022/09/25 02:12:50;;;;;;;12.87;4.50;;;;;;;;;;5034813;28;20285;-70
2022/09/25 02:15:19;;;;;;;9.47;3.93;;;;;;;;;;5055063;28;20645;-71
2022/09/25 02:21:11;;;;;;;11.07;4.43;;;;;;;;;;5006666;28;20604;-70
2022/09/25 02:24:00;;;;;;;11.33;3.87;;;;;;;;;;5056707;28;20518;-71
2022/09/25 02:26:28;;;;;;;9.60;4.50;;;;;;;;;;5001506;28;20700;-70
2022/09/25 02:28:55;;;;;;;13.73;4.20;;;;;;;;;;5056410;28;20589;-70
2022/09/25 02:31:22;;;;;;;16.03;4.40;;;;;;;;;;5038198;28;20654;-70
2022/09/25 02:33:49;;;;;;;17.80;5.43;;;;;;;;;;5056276;28;20182;-70
2022/09/25 02:36:17;;;;;;;12.07;4.63;;;;;;;;;;5038358;28;20178;-70
2022/09/25 02:38:43;;;;;;;11.33;4.80;;;;;;;;;;5056739;28;20281;-70
2022/09/25 02:41:09;;;;;;;9.50;4.50;;;;;;;;;;5038325;28;20648;-69
2022/09/25 02:43:47;;;;;;;12.20;5.00;;;;;;;;;;5055924;28;20198;-70
2022/09/25 02:46:22;;;;;;;9.87;4.83;;;;;;;;;;5056097;28;20566;-70
2022/09/25 02:48:53;;;;;;;11.60;4.93;;;;;;;;;;5056081;28;20536;-70
2022/09/25 02:51:34;;;;;;;10.33;5.20;;;;;;;;;;5056144;28;20186;-70
2022/09/25 02:54:13;;;;;;;11.10;5.10;;;;;;;;;;5055910;28;20228;-71
2022/09/25 02:56:59;;;;;;;16.63;5.30;;;;;;;;;;5056088;28;20186;-71
2022/09/25 02:59:28;;;;;;;12.33;5.47;;;;;;;;;;4979337;28;20217;-70
2022/09/25 03:01:55;;;;;;;10.20;5.10;;;;;;;;;;5037841;28;20206;-70
2022/09/25 03:04:22;;;;;;;11.83;6.17;;;;;;;;;;5055720;28;20528;-70
2022/09/25 03:06:47;;;;;;;11.30;5.20;;;;;;;;;;5055524;28;20233;-71
2022/09/25 03:09:15;;;;;;;12.60;5.33;;;;;;;;;;5037588;28;20171;-70
2022/09/25 03:11:42;;;;;;;14.23;4.43;;;;;;;;;;5055441;28;20194;-70
2022/09/25 03:14:08;;;;;;;13.10;4.57;;;;;;;;;;5055572;28;20175;-70
2022/09/25 03:16:34;;;;;;;14.93;4.90;;;;;;;;;;5055766;28;20183;-71
2022/09/25 03:19:00;;;;;;;11.60;4.73;;;;;;;;;;5056570;28;20261;-70
2022/09/25 03:21:26;;;;;;;13.97;4.70;;;;;;;;;;5037360;28;20198;-70
2022/09/25 03:23:55;;;;;;;12.23;4.27;;;;;;;;;;5055372;28;20189;-71
2022/09/25 03:26:21;;;;;;;10.60;4.20;;;;;;;;;;5036871;28;20210;-70
2022/09/25 03:28:47;;;;;;;15.87;4.50;;;;;;;;;;5055248;28;20181;-71
2022/09/25 03:31:13;;;;;;;13.87;3.77;;;;;;;;;;5037378;28;20219;-70
2022/09/25 03:33:40;;;;;;;13.27;4.77;;;;;;;;;;5037388;28;20208;-71
2022/09/25 03:36:08;;;;;;;8.83;3.00;;;;;;;;;;5037272;28;20585;-71
2022/09/25 03:38:34;;;;;;;11.27;3.70;;;;;;;;;;5055494;28;20206;-70
2022/09/25 03:41:00;;;;;;;13.40;3.67;;;;;;;;;;5037066;28;20179;-70
2022/09/25 03:43:27;;;;;;;7.97;3.10;;;;;;;;;;5036976;28;20186;-71
2022/09/25 03:45:53;;;;;;;8.63;3.57;;;;;;;;;;5036910;28;20216;-70
2022/09/25 03:48:19;;;;;;;9.87;2.90;;;;;;;;;;5037112;28;20269;-70
2022/09/25 03:50:45;;;;;;;8.23;2.90;;;;;;;;;;5037065;28;20634;-70
2022/09/25 03:53:11;;;;;;;11.10;3.30;;;;;;;;;;5036794;28;20617;-70
2022/09/25 03:55:37;;;;;;;12.27;3.43;;;;;;;;;;5036916;28;20209;-70
2022/09/25 03:58:03;;;;;;;12.13;4.17;;;;;;;;;;5054950;28;20221;-70
2022/09/25 04:00:29;;;;;;;11.57;3.53;;;;;;;;;;5054495;28;20179;-71
2022/09/25 04:02:56;;;;;;;14.07;3.20;;;;;;;;;;5054945;28;20281;-69
2022/09/25 04:05:22;;;;;;;12.10;3.83;;;;;;;;;;5054347;28;20210;-70
2022/09/25 04:07:48;;;;;;;15.83;4.03;;;;;;;;;;5055084;28;20601;-70
2022/09/25 04:10:14;;;;;;;11.23;3.33;;;;;;;;;;5054528;28;20634;-71
2022/09/25 04:12:42;;;;;;;10.47;3.37;;;;;;;;;;5054247;28;20671;-70
2022/09/25 04:15:08;;;;;;;10.93;3.40;;;;;;;;;;5036528;28;20654;-70
2022/09/25 04:17:35;;;;;;;7.03;3.03;;;;;;;;;;5054346;28;20647;-71
2022/09/25 04:20:01;;;;;;;8.40;2.90;;;;;;;;;;5036307;28;20190;-69
2022/09/25 04:22:26;;;;;;;12.83;3.13;;;;;;;;;;5054231;28;20670;-70
2022/09/25 04:24:53;;;;;;;14.83;3.37;;;;;;;;;;5054272;28;20183;-71
2022/09/25 04:27:21;;;;;;;7.70;2.80;;;;;;;;;;5036205;28;20292;-70
2022/09/25 04:29:47;;;;;;;8.47;3.20;;;;;;;;;;5054053;28;20175;-70
2022/09/25 04:34:58;;;;;;;10.00;3.50;;;;;;;;;;5054445;28;20181;-69
2022/09/25 04:37:25;;;;;;;7.13;3.27;;;;;;;;;;5035581;28;20185;-71
2022/09/25 04:39:54;;;;;;;12.00;3.50;;;;;;;;;;5036253;28;20605;-71
2022/09/25 04:42:24;;;;;;;8.20;3.13;;;;;;;;;;5053793;28;20198;-70
2022/09/25 04:44:53;;;;;;;10.83;2.83;;;;;;;;;;5053965;28;20210;-70
2022/09/25 04:47:23;;;;;;;12.17;3.00;;;;;;;;;;5053862;28;20198;-70
2022/09/25 04:49:49;;;;;;;12.43;3.70;;;;;;;;;;5053777;28;20177;-70
2022/09/25 04:52:16;;;;;;;12.90;3.53;;;;;;;;;;5053617;28;20245;-70
2022/09/25 04:54:42;;;;;;;12.23;3.17;;;;;;;;;;5053900;28;20263;-71
2022/09/25 04:57:09;;;;;;;12.43;3.00;;;;;;;;;;5053624;28;20227;-70
2022/09/25 04:59:36;;;;;;;9.70;3.50;;;;;;;;;;5035655;28;20183;-70
2022/09/25 05:02:02;;;;;;;14.03;3.33;;;;;;;;;;5053524;28;20706;-70
2022/09/25 05:04:28;;;;;;;13.40;3.40;;;;;;;;;;5053633;28;20209;-69
2022/09/25 05:06:54;;;;;;;11.43;3.20;;;;;;;;;;5053620;28;20247;-70
2022/09/25 05:09:20;;;;;;;10.00;3.07;;;;;;;;;;5035565;28;20549;-70
2022/09/25 05:11:46;;;;;;;12.50;3.63;;;;;;;;;;5053449;28;20236;-69
2022/09/25 05:14:12;;;;;;;14.53;3.80;;;;;;;;;;5053340;28;20189;-70
2022/09/25 05:16:38;;;;;;;8.50;3.10;;;;;;;;;;5053678;28;20207;-70
2022/09/25 05:19:04;;;;;;;9.63;3.07;;;;;;;;;;5056407;28;20178;-70
2022/09/25 05:21:31;;;;;;;10.20;3.50;;;;;;;;;;5057076;28;20205;-70
2022/09/25 05:23:57;;;;;;;12.37;3.23;;;;;;;;;;5039774;28;20182;-70
2022/09/25 05:26:23;;;;;;;8.70;3.40;;;;;;;;;;5040920;28;20206;-70
2022/09/25 05:28:50;;;;;;;13.33;3.90;;;;;;;;;;5059493;28;20231;-70
2022/09/25 05:31:16;;;;;;;11.43;3.90;;;;;;;;;;5058200;28;20694;-70
2022/09/25 05:33:42;;;;;;;15.63;3.70;;;;;;;;;;5058408;28;20189;-71
2022/09/25 05:36:09;;;;;;;9.27;3.43;;;;;;;;;;5053323;28;20265;-71
2022/09/25 05:38:36;;;;;;;11.03;4.10;;;;;;;;;;5053107;28;20699;-70
2022/09/25 05:41:03;;;;;;;10.63;3.80;;;;;;;;;;5053308;28;20269;-70
2022/09/25 05:43:30;;;;;;;8.27;4.00;;;;;;;;;;5053021;28;20182;-71
2022/09/25 05:45:57;;;;;;;13.97;4.63;;;;;;;;;;5053180;28;20194;-70
2022/09/25 05:48:23;;;;;;;10.40;3.60;;;;;;;;;;5035685;28;20182;-70
2022/09/25 05:50:53;;;;;;;14.57;4.40;;;;;;;;;;5039191;28;20244;-70
2022/09/25 05:53:18;;;;;;;10.03;3.87;;;;;;;;;;5039764;28;20175;-71
2022/09/25 05:55:56;;;;;;;16.60;4.00;;;;;;;;;;5038937;28;20678;-71
2022/09/25 05:58:23;;;;;;;8.13;3.50;;;;;;;;;;5057100;28;20179;-70
2022/09/25 06:00:49;;;;;;;13.83;3.70;;;;;;;;;;5057419;28;20182;-70
2022/09/25 06:03:15;;;;;;;11.47;4.10;;;;;;;;;;5038808;28;20686;-70
2022/09/25 06:05:41;;;;;;;9.83;3.93;;;;;;;;;;5056747;28;20201;-71
2022/09/25 06:08:08;;;;;;;7.53;3.50;;;;;;;;;;5056773;28;20178;-69
2022/09/25 06:10:34;;;;;;;8.87;3.83;;;;;;;;;;5056851;28;20181;-70
2022/09/25 06:13:01;;;;;;;13.47;4.27;;;;;;;;;;5038848;28;20251;-69
2022/09/25 06:15:28;;;;;;;13.70;4.80;;;;;;;;;;5056997;28;20202;-70
2022/09/25 06:17:55;;;;;;;14.50;3.93;;;;;;;;;;5056725;28;20179;-70
2022/09/25 06:20:21;;;;;;;11.50;3.30;;;;;;;;;;5059942;28;20198;-70
2022/09/25 06:22:57;;;;;;;12.27;4.30;;;;;;;;;;5056641;28;20225;-70
2022/09/25 06:25:24;;;;;;;15.90;4.07;;;;;;;;;;5056475;28;20179;-70
2022/09/25 06:27:54;;;;;;;13.67;4.57;;;;;;;;;;5056598;28;20175;-69
2022/09/25 06:30:20;;;;;;;13.90;3.93;;;;;;;;;;5038426;28;20174;-69
2022/09/25 06:32:47;;;;;;;8.70;3.37;;;;;;;;;;5056194;28;20214;-70
2022/09/25 06:35:13;;;;;;;11.67;4.23;;;;;;;;;;5038352;28;20221;-70
2022/09/25 06:37:39;;;;;;;17.87;4.13;;;;;;;;;;5038265;28;20206;-70
2022/09/25 06:40:06;;;;;;;14.20;4.73;;;;;;;;;;5056104;28;20210;-70
2022/09/25 06:42:34;;;;;;;10.17;3.83;;;;;;;;;;5038044;28;20203;-70
2022/09/25 06:44:59;;;;;;;9.67;3.47;;;;;;;;;;5055942;28;20171;-70
2022/09/25 06:47:25;;;;;;;11.93;3.87;;;;;;;;;;5056160;28;20603;-70
2022/09/25 06:49:51;;;;;;;12.07;3.77;;;;;;;;;;5055826;28;20185;-70
2022/09/25 06:52:18;;;;;;;10.70;4.00;;;;;;;;;;5055691;28;20255;-70
2022/09/25 06:54:44;;;;;;;8.33;3.90;;;;;;;;;;5056391;28;20182;-70
2022/09/25 06:57:11;;;;;;;11.90;3.17;;;;;;;;;;5037869;28;20182;-70
2022/09/25 06:59:37;;;;;;;11.27;3.20;;;;;;;;;;5055556;28;20175;-70
2022/09/25 07:04:50;;;;;;;11.33;3.57;;;;;;;;;;5055587;28;20178;-70
2022/09/25 07:07:18;;;;;;;8.47;3.43;;;;;;;;;;5055634;28;20194;-70
2022/09/25 07:09:44;;;;;;;10.67;3.70;;;;;;;;;;5055962;28;20181;-70
2022/09/25 07:12:10;;;;;;;11.83;3.40;;;;;;;;;;5037368;28;20293;-70
2022/09/25 07:14:37;;;;;;;10.37;3.03;;;;;;;;;;5055304;28;20716;-70
2022/09/25 07:17:03;;;;;;;10.67;3.93;;;;;;;;;;5037379;28;20240;-71
2022/09/25 07:19:29;;;;;;;8.23;2.80;;;;;;;;;;5037368;28;20187;-70
2022/09/25 07:21:55;;;;;;;10.80;3.30;;;;;;;;;;5037397;28;20297;-70
2022/09/25 07:24:21;;;;;;;9.77;3.43;;;;;;;;;;5038344;28;20191;-70
2022/09/25 07:26:47;;;;;;;11.43;3.37;;;;;;;;;;5055143;28;20194;-70
2022/09/25 07:29:13;;;;;;;6.90;2.40;;;;;;;;;;5055099;28;20269;-70
2022/09/25 07:31:39;;;;;;;10.53;3.17;;;;;;;;;;5055094;28;20297;-70
2022/09/25 07:34:08;;;;;;;12.57;2.97;;;;;;;;;;5037133;28;20218;-70
2022/09/25 07:36:34;;;;;;;8.90;3.07;;;;;;;;;;5037164;28;20213;-70
2022/09/25 07:39:00;;;;;;;9.03;3.50;;;;;;;;;;5055259;28;20697;-70
2022/09/25 07:41:26;;;;;;;7.63;3.20;;;;;;;;;;5054926;28;20202;-70
2022/09/25 07:43:55;;;;;;;12.07;3.43;;;;;;;;;;5054635;28;20654;-70
2022/09/25 07:46:20;;;;;;;9.73;2.70;;;;;;;;;;5054794;28;20627;-69
2022/09/25 07:48:48;;;;;;;12.87;2.90;;;;;;;;;;5036753;28;20175;-70
2022/09/25 07:51:14;;;;;;;8.23;2.90;;;;;;;;;;5036641;28;20179;-69
2022/09/25 07:53:40;;;;;;;8.17;3.40;;;;;;;;;;5036733;28;20190;-70
2022/09/25 07:56:06;;;;;;;10.60;3.67;;;;;;;;;;5054615;28;20185;-70
2022/09/25 07:58:33;;;;;;;8.20;2.80;;;;;;;;;;5054959;28;20186;-70
2022/09/25 08:00:59;;;;;;;7.37;2.43;;;;;;;;;;5036260;28;20659;-69
2022/09/25 08:03:25;;;;;;;8.60;2.93;;;;;;;;;;5054570;28;20603;-69
2022/09/25 08:05:58;;;;;;;12.73;3.57;;;;;;;;;;5054306;28;20194;-70
2022/09/25 08:08:25;;;;;;;7.30;2.60;;;;;;;;;;5036416;28;20663;-69
2022/09/25 08:10:51;;;;;;;13.00;2.93;;;;;;;;;;5054105;28;20232;-70
2022/09/25 08:13:19;;;;;;;13.93;3.07;;;;;;;;;;5053099;28;20687;-70
2022/09/25 08:15:45;;;;;;;8.63;3.00;;;;;;;;;;5054385;28;20261;-70
2022/09/25 08:18:11;;;;;;;7.07;2.60;;;;;;;;;;5036068;28;20273;-69
2022/09/25 08:20:39;;;;;;;9.10;2.93;;;;;;;;;;5036220;28;20304;-69
2022/09/25 08:23:05;;;;;;;8.77;2.67;;;;;;;;;;5054041;28;20194;-69
2022/09/25 08:25:30;;;;;;;6.30;2.43;;;;;;;;;;5053826;28;20262;-69
2022/09/25 08:27:56;;;;;;;10.80;3.47;;;;;;;;;;5035896;28;20534;-70
2022/09/25 08:30:23;;;;;;;5.83;2.37;;;;;;;;;;5054072;28;20182;-69
2022/09/25 08:32:51;;;;;;;7.93;2.50;;;;;;;;;;5053756;28;20559;-69
2022/09/25 08:35:17;;;;;;;10.07;2.63;;;;;;;;;;5054193;28;20195;-70
2022/09/25 08:37:47;;;;;;;6.67;2.20;;;;;;;;;;5053899;28;20182;-70
2022/09/25 08:40:20;;;;;;;4.40;2.10;;;;;;;;;;5054187;28;20174;-69
2022/09/25 08:42:48;;;;;;;11.57;2.43;;;;;;;;;;5053652;28;20195;-70
2022/09/25 08:51:10;;;;;;;8.73;2.40;;;;;;;;;;5054054;28;20229;-71
2022/09/25 08:53:37;;;;;;;9.73;3.13;;;;;;;;;;5053706;28;20240;-70
2022/09/25 08:56:13;;;;;;;9.73;2.60;;;;;;;;;;5053861;28;20181;-69
2022/09/25 08:58:41;;;;;;;8.70;2.20;;;;;;;;;;5053760;28;20680;-69
2022/09/25 09:01:10;;;;;;;9.63;2.20;;;;;;;;;;5053512;28;20174;-70
2022/09/25 09:03:43;;;;;;;10.27;2.47;;;;;;;;;;5053607;28;20196;-69
2022/09/25 09:06:12;;;;;;;5.50;2.10;;;;;;;;;;5035515;28;20554;-69
2022/09/25 09:08:40;;;;;;;5.07;2.20;;;;;;;;;;5053834;28;20171;-70
2022/09/25 09:11:15;;;;;;;10.20;2.53;;;;;;;;;;5035283;28;20237;-69
2022/09/25 09:13:41;;;;;;;6.43;2.13;;;;;;;;;;5035470;28;20259;-70
2022/09/25 09:16:07;;;;;;;7.07;2.63;;;;;;;;;;5053283;28;20181;-70
2022/09/25 09:18:37;;;;;;;6.80;1.83;;;;;;;;;;5053108;28;20214;-69
2022/09/25 09:21:13;;;;;;;7.23;2.17;;;;;;;;;;5035084;28;20178;-69
2022/09/25 09:23:39;;;;;;;8.20;2.53;;;;;;;;;;5034837;28;20677;-69
2022/09/25 09:26:10;;;;;;;12.80;2.17;;;;;;;;;;5035236;28;20206;-69
2022/09/25 09:28:45;;;;;;;5.97;2.13;;;;;;;;;;5053527;28;20560;-71
2022/09/25 09:31:14;;;;;;;13.43;2.90;;;;;;;;;;5052921;28;20255;-71
2022/09/25 09:33:46;;;;;;;8.43;2.13;;;;;;;;;;5053387;28;20603;-70
2022/09/25 09:36:30;;;;;;;9.90;2.10;;;;;;;;;;5053138;28;20183;-69
2022/09/25 09:38:56;;;;;;;7.43;1.87;;;;;;;;;;5053297;28;20224;-70
2022/09/25 09:41:39;;;;;;;5.50;1.60;;;;;;;;;;5052993;28;20279;-70
2022/09/25 09:44:11;;;;;;;10.80;2.03;;;;;;;;;;5053064;28;20154;-69
2022/09/25 09:46:47;;;;;;;8.87;2.43;;;;;;;;;;5034848;28;20279;-74
2022/09/25 09:49:13;;;;;;;11.27;2.30;;;;;;;;;;5053046;28;20158;-69
2022/09/25 09:51:46;;;;;;;6.57;1.80;;;;;;;;;;5034996;28;20209;-69
2022/09/25 09:54:15;;;;;;;4.37;1.40;;;;;;;;;;5052930;28;20186;-70
2022/09/25 09:56:42;;;;;;;7.67;1.80;;;;;;;;;;5053097;28;20178;-70
2022/09/25 09:59:18;;;;;;;5.77;1.83;;;;;;;;;;5053335;28;20183;-70
2022/09/25 10:01:45;;;;;;;4.23;1.90;;;;;;;;;;5035670;28;20205;-70
2022/09/25 10:04:22;;;;;;;4.80;2.00;;;;;;;;;;5053005;28;20236;-70
2022/09/25 10:07:01;;;;;;;5.03;1.50;;;;;;;;;;5052815;28;20200;-70
2022/09/25 10:09:27;;;;;;;6.43;1.97;;;;;;;;;;5052714;28;20216;-69
2022/09/25 10:12:00;;;;;;;7.07;1.53;;;;;;;;;;5052428;28;20195;-69
2022/09/25 10:14:29;;;;;;;10.80;2.20;;;;;;;;;;5034610;28;20181;-69
2022/09/25 10:16:55;;;;;;;6.30;2.00;;;;;;;;;;5034559;28;20240;-69
2022/09/25 10:19:23;;;;;;;6.23;1.80;;;;;;;;;;5052412;28;20217;-70
2022/09/25 10:21:52;;;;;;;3.00;1.50;;;;;;;;;;5052757;28;20205;-70
2022/09/25 10:24:39;;;;;;;3.57;1.40;;;;;;;;;;5034520;28;20301;-69
2022/09/25 10:27:19;;;;;;;7.37;1.63;;;;;;;;;;5052289;28;20231;-68
2022/09/25 10:29:45;;;;;;;7.53;1.93;;;;;;;;;;5052650;28;20173;-70
2022/09/25 10:32:11;;;;;;;5.70;2.00;;;;;;;;;;5052256;28;20293;-69
2022/09/25 10:34:40;;;;;;;4.10;1.83;;;;;;;;;;5034528;28;20627;-70
2022/09/25 10:37:19;;;;;;;6.73;1.87;;;;;;;;;;5055950;28;20177;-70
2022/09/25 10:39:59;;;;;;;8.77;1.93;;;;;;;;;;5056137;28;20580;-70
2022/09/25 10:42:32;;;;;;;6.77;1.90;;;;;;;;;;5055788;28;20216;-70
2022/09/25 10:44:58;;;;;;;8.00;2.17;;;;;;;;;;5055858;28;20202;-70
2022/09/25 10:50:11;;;;;;;2.23;1.30;;;;;;;;;;5055809;28;20641;-69
2022/09/25 10:52:51;;;;;;;4.97;1.90;;;;;;;;;;5055574;28;20256;-69
2022/09/25 10:55:23;;;;;;;9.07;2.10;;;;;;;;;;5055580;28;20619;-69
2022/09/25 10:57:54;;;;;;;5.27;1.70;;;;;;;;;;5037615;28;20174;-70
2022/09/25 11:00:21;;;;;;;4.53;1.63;;;;;;;;;;5037708;28;20259;-69
2022/09/25 11:02:52;;;;;;;8.37;2.00;;;;;;;;;;5037585;28;20225;-70
2022/09/25 11:05:20;;;;;;;2.93;1.40;;;;;;;;;;5056224;28;20497;-70
2022/09/25 11:07:53;;;;;;;4.70;1.57;;;;;;;;;;5055386;28;20198;-70
2022/09/25 11:10:21;;;;;;;5.20;2.30;;;;;;;;;;5055345;28;20182;-70
2022/09/25 11:12:48;;;;;;;5.90;1.67;;;;;;;;;;5055175;28;20194;-69
2022/09/25 11:15:17;;;;;;;4.87;1.90;;;;;;;;;;5055458;28;20228;-70
2022/09/25 11:17:44;;;;;;;3.40;1.70;;;;;;;;;;5055210;28;20183;-69
2022/09/25 11:20:19;;;;;;;7.43;2.47;;;;;;;;;;5056853;28;20174;-71
2022/09/25 11:22:51;;;;;;;5.17;2.17;;;;;;;;;;5039463;28;20209;-69
2022/09/25 11:25:24;;;;;;;5.90;1.70;;;;;;;;;;5039465;28;20182;-70
2022/09/25 11:27:53;;;;;;;8.60;1.80;;;;;;;;;;5039684;28;20190;-69
2022/09/25 11:30:21;;;;;;;4.77;1.20;;;;;;;;;;5055169;28;20527;-69
2022/09/25 11:32:49;;;;;;;6.17;1.97;;;;;;;;;;5054955;28;20214;-70
2022/09/25 11:35:21;;;;;;;5.43;1.70;;;;;;;;;;5054988;28;20713;-70
2022/09/25 11:38:03;;;;;;;7.47;1.73;;;;;;;;;;5037054;28;20598;-69
2022/09/25 11:43:39;;;;;;;3.13;1.60;;;;;;;;;;5055150;28;20650;-69
2022/09/25 11:46:19;;;;;;;4.27;1.33;;;;;;;;;;5036661;28;20732;-69
2022/09/25 11:48:53;;;;;;;9.33;1.83;;;;;;;;;;5054974;28;20535;-68
2022/09/25 11:51:38;;;;;;;3.80;1.50;;;;;;;;;;5055171;28;20193;-69
2022/09/25 11:54:05;;;;;;;11.17;1.73;;;;;;;;;;5055140;28;20174;-69
2022/09/25 11:56:36;;;;;;;3.97;1.33;;;;;;;;;;5054693;28;20550;-69
2022/09/25 11:59:14;;;;;;;5.07;1.50;;;;;;;;;;5054856;28;20178;-69
2022/09/25 12:02:03;;;;;;;5.60;1.93;;;;;;;;;;5036557;28;20747;-68
2022/09/25 12:04:29;;;;;;;3.37;1.30;;;;;;;;;;5039128;28;20669;-69
2022/09/25 12:07:25;;;;;;;3.03;1.23;;;;;;;;;;5036461;28;20198;-69
2022/09/25 12:10:03;;;;;;;4.53;1.40;;;;;;;;;;5029069;28;20229;-68
2022/09/25 12:12:34;;;;;;;3.20;1.20;;;;;;;;;;5056846;28;20195;-68
2022/09/25 12:15:19;;;;;;;3.87;1.40;;;;;;;;;;5059031;28;20158;-69
2022/09/25 12:17:59;;;;;;;1.53;1.10;;;;;;;;;;5039356;28;20186;-69
2022/09/25 12:20:25;;;;;;;2.73;1.10;;;;;;;;;;5039823;28;20174;-68
2022/09/25 12:23:00;;;;;;;4.13;1.10;;;;;;;;;;5055779;28;20541;-69
2022/09/25 12:25:43;;;;;;;3.27;1.20;;;;;;;;;;5054320;28;20184;-68
2022/09/25 12:28:16;;;;;;;5.17;1.50;;;;;;;;;;5054299;28;20158;-69
2022/09/25 12:30:58;;;;;;;3.03;1.27;;;;;;;;;;5035955;28;20257;-69
2022/09/25 12:33:34;;;;;;;2.27;1.50;;;;;;;;;;5054140;28;20587;-69
2022/09/25 12:36:11;;;;;;;5.13;1.37;;;;;;;;;;5053976;28;20249;-69
2022/09/25 12:38:55;;;;;;;2.23;1.37;;;;;;;;;;5054015;28;20253;-69
2022/09/25 12:41:31;;;;;;;7.77;1.33;;;;;;;;;;5053777;28;20205;-68
2022/09/25 12:44:03;;;;;;;3.40;1.57;;;;;;;;;;5035907;28;20166;-69
2022/09/25 12:46:42;;;;;;;3.43;1.63;;;;;;;;;;5035732;28;20244;-69
2022/09/25 12:49:25;;;;;;;2.47;1.10;;;;;;;;;;5053821;28;20706;-69
2022/09/25 12:51:53;;;;;;;4.53;2.43;;;;;;;;;;5053600;28;20263;-69
2022/09/25 12:54:28;;;;;;;9.13;1.80;;;;;;;;;;5053506;28;20225;-69
2022/09/25 12:57:00;;;;;;;4.00;1.60;;;;;;;;;;5035632;28;20185;-69
2022/09/25 12:59:25;;;;;;;5.97;1.87;;;;;;;;;;5052825;28;20340;-69
2022/09/25 13:02:10;;;;;;;5.40;2.07;;;;;;;;;;5053294;28;20678;-69
2022/09/25 13:04:54;;;;;;;4.80;1.80;;;;;;;;;;5053350;28;20181;-69
2022/09/25 13:07:40;;;;;;;3.53;1.50;;;;;;;;;;5035253;28;20202;-69
2022/09/25 13:10:17;;;;;;;4.83;2.00;;;;;;;;;;5053534;28;20555;-68
2022/09/25 13:12:44;;;;;;;4.07;2.23;;;;;;;;;;5053172;28;20198;-68
2022/09/25 13:15:15;;;;;;;3.17;1.33;;;;;;;;;;5053339;28;20188;-69
2022/09/25 13:17:41;;;;;;;4.13;2.10;;;;;;;;;;5053099;28;20179;-69
2022/09/25 13:20:26;;;;;;;3.77;1.40;;;;;;;;;;5053264;28;20182;-69
2022/09/25 13:22:55;;;;;;;4.60;1.80;;;;;;;;;;5035129;28;20237;-69
2022/09/25 13:25:22;;;;;;;2.43;1.50;;;;;;;;;;5052978;28;20183;-69
2022/09/25 13:27:48;;;;;;;4.47;1.50;;;;;;;;;;5035059;28;20206;-69
2022/09/25 13:30:20;;;;;;;2.93;1.23;;;;;;;;;;5035014;28;20179;-69
2022/09/25 13:32:51;;;;;;;3.77;1.50;;;;;;;;;;5052712;28;20697;-69
2022/09/25 13:35:18;;;;;;;2.13;1.40;;;;;;;;;;5053145;28;20183;-68
2022/09/25 13:37:44;;;;;;;5.27;1.50;;;;;;;;;;5052959;28;20214;-69
2022/09/25 13:43:26;;;;;;;8.63;1.67;;;;;;;;;;5052973;28;20224;-69
2022/09/25 13:46:12;;;;;;;1.80;1.20;;;;;;;;;;5053392;28;20183;-69
2022/09/25 13:48:39;;;;;;;3.50;1.30;;;;;;;;;;5053031;28;20518;-68
2022/09/25 13:51:17;;;;;;;2.43;1.37;;;;;;;;;;5034863;28;20178;-68
2022/09/25 13:53:55;;;;;;;4.30;1.63;;;;;;;;;;5053001;28;20225;-69
2022/09/25 13:56:22;;;;;;;3.73;1.20;;;;;;;;;;5034863;28;20209;-69
2022/09/25 13:59:00;;;;;;;2.87;1.30;;;;;;;;;;5052786;28;20189;-69
2022/09/25 14:01:50;;;;;;;3.63;1.37;;;;;;;;;;5052716;28;20590;-69
2022/09/25 14:04:19;;;;;;;2.60;1.20;;;;;;;;;;4998575;28;20206;-69
2022/09/25 14:06:46;;;;;;;2.93;1.57;;;;;;;;;;5052620;28;20198;-69
2022/09/25 14:09:13;;;;;;;5.27;1.47;;;;;;;;;;5052685;28;20175;-69
2022/09/25 14:11:41;;;;;;;2.10;1.30;;;;;;;;;;5037229;28;20242;-69
2022/09/25 14:14:08;;;;;;;3.37;1.57;;;;;;;;;;5056513;28;20171;-69
2022/09/25 14:16:44;;;;;;;5.60;1.70;;;;;;;;;;5056355;28;20178;-69
2022/09/25 14:19:16;;;;;;;7.30;2.50;;;;;;;;;;5056668;28;20220;-69
2022/09/25 14:21:43;;;;;;;2.53;1.40;;;;;;;;;;5056536;28;20194;-68
2022/09/25 14:24:22;;;;;;;3.23;1.40;;;;;;;;;;5057114;28;20194;-69
2022/09/25 14:26:52;;;;;;;2.83;1.50;;;;;;;;;;5057788;28;20201;-68
2022/09/25 14:29:22;;;;;;;7.53;1.50;;;;;;;;;;5038873;28;20178;-67
2022/09/25 14:31:55;;;;;;;3.13;1.50;;;;;;;;;;5038509;28;20218;-68
2022/09/25 14:34:25;;;;;;;3.73;1.60;;;;;;;;;;5038348;28;20194;-68
2022/09/25 14:37:02;;;;;;;3.93;1.50;;;;;;;;;;5056287;28;20183;-68
2022/09/25 14:39:44;;;;;;;4.73;1.37;;;;;;;;;;5056372;28;20158;-67
2022/09/25 14:42:29;;;;;;;5.80;1.70;;;;;;;;;;5055981;28;20206;-68
2022/09/25 14:44:58;;;;;;;4.27;1.57;;;;;;;;;;5056113;28;20171;-67
2022/09/25 14:47:29;;;;;;;3.83;1.60;;;;;;;;;;5037933;28;20211;-68
2022/09/25 14:49:55;;;;;;;4.27;1.50;;;;;;;;;;5037880;28;20174;-67
2022/09/25 14:52:23;;;;;;;4.47;1.50;;;;;;;;;;5055941;28;20202;-68
2022/09/25 14:54:50;;;;;;;3.37;1.40;;;;;;;;;;5055787;28;20178;-67
2022/09/25 14:57:17;;;;;;;5.03;1.40;;;;;;;;;;5055791;28;20261;-68
2022/09/25 14:59:51;;;;;;;3.90;1.57;;;;;;;;;;5037725;28;20240;-67
2022/09/25 15:02:37;;;;;;;3.30;1.97;;;;;;;;;;5055680;28;20201;-68
2022/09/25 15:05:22;;;;;;;2.87;1.40;;;;;;;;;;5037524;28;20182;-68
2022/09/25 15:07:48;;;;;;;4.60;1.40;;;;;;;;;;5055439;28;20230;-68
2022/09/25 15:10:30;;;;;;;3.77;1.40;;;;;;;;;;5055844;28;20256;-67
2022/09/25 15:13:32;;;;;;;3.93;1.23;;;;;;;;;;5037479;28;20584;-67
2022/09/25 15:18:44;;;;;;;4.83;1.53;;;;;;;;;;5055881;28;20170;-68
2022/09/25 15:21:28;;;;;;;2.37;1.60;;;;;;;;;;5037164;28;20178;-67